createdAt,value
2022-11-16T00:00:36.458Z,10.24
2022-11-16T00:02:40.469Z,10.22
2022-11-16T00:04:43.171Z,10.22
2022-11-16T00:06:46.406Z,10.20
2022-11-16T00:09:11.658Z,10.18
2022-11-16T00:11:17.994Z,10.18
2022-11-16T00:13:21.023Z,10.18
2022-11-16T00:15:23.599Z,10.16
2022-11-16T00:17:26.155Z,10.15
2022-11-16T00:19:30.500Z,10.08
2022-11-16T00:21:33.881Z,10.11
2022-11-16T00:23:38.435Z,10.11
2022-11-16T00:25:41.062Z,10.11
2022-11-16T00:27:43.659Z,10.10
2022-11-16T00:29:46.239Z,10.08
2022-11-16T00:31:49.283Z,10.09
2022-11-16T00:33:53.051Z,10.07
2022-11-16T00:35:57.356Z,10.08
2022-11-16T00:37:59.982Z,10.08
2022-11-16T00:40:02.577Z,10.09
2022-11-16T00:42:05.227Z,10.09
2022-11-16T00:44:08.105Z,10.09
2022-11-16T00:46:11.154Z,10.09
2022-11-16T00:48:13.857Z,10.08
2022-11-16T00:50:17.045Z,10.07
2022-11-16T00:52:21.065Z,10.06
2022-11-16T00:54:23.858Z,10.06
2022-11-16T00:56:26.533Z,10.08
2022-11-16T00:58:29.110Z,10.09
2022-11-16T01:00:32.123Z,10.08
2022-11-16T01:02:34.751Z,10.07
2022-11-16T01:04:37.382Z,10.07
2022-11-16T01:06:40.027Z,10.08
2022-11-16T01:08:44.915Z,10.06
2022-11-16T01:10:47.495Z,10.07
2022-11-16T01:12:50.448Z,10.07
2022-11-16T01:14:53.110Z,10.06
2022-11-16T01:16:55.744Z,10.05
2022-11-16T01:18:58.620Z,10.07
2022-11-16T01:21:01.218Z,10.07
2022-11-16T01:23:03.832Z,10.04
2022-11-16T01:25:09.103Z,10.04
2022-11-16T01:27:11.782Z,10.02
2022-11-16T01:29:14.679Z,10.04
2022-11-16T01:31:17.262Z,10.02
2022-11-16T01:33:19.847Z,10.02
2022-11-16T01:35:22.621Z,10.06
2022-11-16T01:37:25.215Z,10.02
2022-11-16T01:39:27.790Z,10.02
2022-11-16T01:41:31.888Z,10.02
2022-11-16T01:43:51.885Z,10.03
2022-11-16T01:45:55.106Z,10.04
2022-11-16T01:47:57.794Z,10.06
2022-11-16T01:50:07.545Z,10.07
2022-11-16T01:52:14.228Z,10.07
2022-11-16T01:54:17.610Z,10.09
2022-11-16T01:56:21.346Z,10.08
2022-11-16T01:58:27.315Z,10.05
2022-11-16T02:00:30.037Z,10.07
2022-11-16T02:02:32.671Z,10.13
2022-11-16T02:04:35.318Z,10.05
2022-11-16T02:06:55.080Z,10.13
2022-11-16T02:09:30.687Z,10.10
2022-11-16T02:11:48.692Z,10.08
2022-11-16T02:14:04.819Z,10.07
2022-11-16T02:16:15.629Z,10.08
2022-11-16T02:18:25.686Z,10.03
2022-11-16T02:21:04.552Z,10.08
2022-11-16T02:23:51.813Z,10.05
2022-11-16T02:26:05.841Z,10.03
2022-11-16T02:28:26.789Z,10.03
2022-11-16T02:30:30.964Z,10.02
2022-11-16T02:32:38.600Z,10.02
2022-11-16T02:34:46.178Z,10.06
2022-11-16T02:36:52.851Z,10.07
2022-11-16T02:39:01.853Z,10.07
2022-11-16T02:41:08.740Z,10.09
2022-11-16T02:43:16.502Z,10.10
2022-11-16T02:45:23.282Z,10.11
2022-11-16T02:47:32.837Z,10.11
2022-11-16T02:49:41.268Z,10.13
2022-11-16T02:51:45.735Z,10.14
2022-11-16T02:54:02.144Z,10.15
2022-11-16T02:56:04.802Z,10.16
2022-11-16T02:58:10.667Z,10.16
2022-11-16T03:00:19.365Z,10.16
2022-11-16T03:02:28.571Z,10.17
2022-11-16T03:04:38.505Z,10.15
2022-11-16T03:06:43.682Z,10.17
2022-11-16T03:08:53.184Z,10.17
2022-11-16T03:11:18.479Z,10.17
2022-11-16T03:13:24.172Z,10.16
2022-11-16T03:15:27.170Z,10.18
2022-11-16T03:17:35.347Z,10.20
2022-11-16T03:19:45.052Z,10.16
2022-11-16T03:21:52.899Z,10.18
2022-11-16T03:23:55.662Z,10.16
2022-11-16T03:25:59.866Z,10.17
2022-11-16T03:28:07.931Z,10.17
2022-11-16T03:30:13.916Z,10.17
2022-11-16T03:32:22.219Z,10.17
2022-11-16T03:34:30.382Z,10.16
2022-11-16T03:36:36.319Z,10.17
2022-11-16T03:38:41.699Z,10.16
2022-11-16T03:40:47.446Z,10.14
2022-11-16T03:42:51.053Z,10.13
2022-11-16T03:44:54.779Z,10.14
2022-11-16T03:46:57.452Z,10.15
2022-11-16T03:49:01.826Z,10.13
2022-11-16T03:51:05.082Z,10.10
2022-11-16T03:53:09.055Z,10.10
2022-11-16T03:55:11.768Z,10.08
2022-11-16T03:57:18.031Z,10.09
2022-11-16T03:59:20.682Z,10.08
2022-11-16T04:01:23.352Z,10.10
2022-11-16T04:03:25.972Z,10.10
2022-11-16T04:05:46.467Z,10.11
2022-11-16T04:08:07.771Z,10.09
2022-11-16T04:10:30.094Z,10.10
2022-11-16T04:12:50.658Z,10.10
2022-11-16T04:15:11.015Z,10.09
2022-11-16T04:17:32.089Z,10.09
2022-11-16T04:19:55.356Z,10.08
2022-11-16T04:22:21.551Z,10.13
2022-11-16T04:24:26.662Z,10.10
2022-11-16T04:26:44.554Z,10.16
2022-11-16T04:28:47.186Z,10.12
2022-11-16T04:31:09.070Z,10.10
2022-11-16T04:33:29.120Z,10.07
2022-11-16T04:35:49.499Z,10.08
2022-11-16T04:37:53.382Z,10.06
2022-11-16T04:39:55.997Z,10.02
2022-11-16T04:42:15.231Z,10.03
2022-11-16T04:44:17.887Z,9.98
2022-11-16T04:46:37.949Z,10.03
2022-11-16T04:48:40.575Z,10.01
2022-11-16T04:50:43.499Z,9.99
2022-11-16T04:52:46.540Z,9.99
2022-11-16T04:54:49.148Z,9.98
2022-11-16T04:56:51.782Z,9.96
2022-11-16T04:58:55.707Z,9.97
2022-11-16T05:00:58.326Z,9.98
2022-11-16T05:03:01.829Z,10.00
2022-11-16T05:05:04.976Z,9.99
2022-11-16T05:07:10.948Z,10.00
2022-11-16T05:09:13.941Z,10.01
2022-11-16T05:11:16.583Z,10.02
2022-11-16T05:13:19.178Z,10.03
2022-11-16T05:15:23.270Z,10.04
2022-11-16T05:17:27.369Z,10.11
2022-11-16T05:19:47.494Z,10.07
2022-11-16T05:21:50.142Z,10.05
2022-11-16T05:24:10.298Z,10.04
2022-11-16T05:26:12.926Z,9.98
2022-11-16T05:28:15.531Z,10.05
2022-11-16T05:30:18.668Z,10.03
2022-11-16T05:32:24.672Z,10.05
2022-11-16T05:34:27.498Z,10.04
2022-11-16T05:36:30.142Z,10.05
2022-11-16T05:38:33.108Z,10.13
2022-11-16T05:40:35.971Z,10.15
2022-11-16T05:42:38.576Z,10.16
2022-11-16T05:44:41.219Z,10.12
2022-11-16T05:46:44.794Z,10.15
2022-11-16T05:48:49.124Z,10.12
2022-11-16T05:50:51.767Z,10.11
2022-11-16T05:52:54.335Z,10.15
2022-11-16T05:54:56.910Z,10.15
2022-11-16T05:56:59.528Z,10.14
2022-11-16T05:59:02.809Z,10.11
2022-11-16T06:01:05.453Z,10.13
2022-11-16T06:03:08.133Z,10.23
2022-11-16T06:05:12.248Z,10.18
2022-11-16T06:07:14.849Z,10.19
2022-11-16T06:09:17.596Z,10.18
2022-11-16T06:11:20.200Z,10.15
2022-11-16T06:13:22.805Z,10.13
2022-11-16T06:15:25.436Z,10.12
2022-11-16T06:17:27.985Z,10.11
2022-11-16T06:19:32.683Z,10.09
2022-11-16T06:21:36.765Z,10.09
2022-11-16T06:23:39.498Z,10.11
2022-11-16T06:25:42.244Z,10.11
2022-11-16T06:27:44.894Z,10.11
2022-11-16T06:29:47.443Z,10.11
2022-11-16T06:31:50.156Z,10.10
2022-11-16T06:33:52.709Z,10.10
2022-11-16T06:35:55.287Z,10.10
2022-11-16T06:37:59.705Z,10.07
2022-11-16T06:40:02.302Z,10.06
2022-11-16T06:42:05.144Z,10.05
2022-11-16T06:44:07.687Z,10.04
2022-11-16T06:46:10.283Z,10.03
2022-11-16T06:48:12.877Z,10.04
2022-11-16T06:50:19.078Z,10.05
2022-11-16T06:52:21.812Z,10.07
2022-11-16T06:54:25.785Z,10.05
2022-11-16T06:56:28.418Z,10.05
2022-11-16T06:58:32.609Z,10.04
2022-11-16T07:00:35.527Z,10.05
2022-11-16T07:02:38.429Z,10.02
2022-11-16T07:04:41.005Z,10.08
2022-11-16T07:06:43.709Z,10.06
2022-11-16T07:08:46.304Z,10.05
2022-11-16T07:10:50.234Z,10.10
2022-11-16T07:12:52.866Z,10.06
2022-11-16T07:14:55.428Z,10.08
2022-11-16T07:17:00.357Z,10.05
2022-11-16T07:19:04.963Z,10.06
2022-11-16T07:21:07.966Z,10.11
2022-11-16T07:23:14.179Z,10.11
2022-11-16T07:25:17.215Z,10.07
2022-11-16T07:27:21.142Z,10.05
2022-11-16T07:29:24.523Z,10.05
2022-11-16T07:31:27.104Z,10.05
2022-11-16T07:33:29.996Z,10.03
2022-11-16T07:35:32.656Z,10.00
2022-11-16T07:37:36.496Z,10.02
2022-11-16T07:39:39.101Z,10.04
2022-11-16T07:41:42.456Z,10.05
2022-11-16T07:43:52.581Z,10.03
2022-11-16T07:46:21.426Z,10.00
2022-11-16T07:48:20.936Z,9.96
2022-11-16T07:50:23.553Z,9.94
2022-11-16T07:52:26.118Z,9.99
2022-11-16T07:54:28.711Z,9.99
2022-11-16T07:56:31.290Z,10.00
2022-11-16T07:58:35.684Z,10.02
2022-11-16T08:00:39.833Z,10.04
2022-11-16T08:02:42.412Z,10.08
2022-11-16T08:04:45.236Z,10.10
2022-11-16T08:06:51.635Z,10.17
2022-11-16T08:08:58.300Z,10.27
2022-11-16T08:11:02.249Z,10.25
2022-11-16T08:13:05.260Z,10.28
2022-11-16T08:15:08.840Z,10.30
2022-11-16T08:17:13.008Z,10.34
2022-11-16T08:19:15.576Z,10.46
2022-11-16T08:21:20.035Z,10.44
2022-11-16T08:23:22.639Z,10.48
2022-11-16T08:25:25.544Z,10.51
2022-11-16T08:27:28.587Z,10.66
2022-11-16T08:29:31.275Z,10.61
2022-11-16T08:31:33.969Z,10.60
2022-11-16T08:33:38.051Z,10.61
2022-11-16T08:35:40.609Z,10.62
2022-11-16T08:37:43.202Z,10.65
2022-11-16T08:39:45.824Z,10.66
2022-11-16T08:41:48.391Z,10.67
2022-11-16T08:43:53.281Z,10.71
2022-11-16T08:45:56.048Z,10.69
2022-11-16T08:48:04.049Z,10.77
2022-11-16T08:50:08.850Z,10.73
2022-11-16T08:52:11.498Z,10.73
2022-11-16T08:54:14.091Z,10.71
2022-11-16T08:56:18.655Z,10.73
2022-11-16T08:58:21.354Z,10.77
2022-11-16T09:00:24.059Z,10.72
2022-11-16T09:02:26.692Z,10.69
2022-11-16T09:04:34.101Z,10.69
2022-11-16T09:06:40.729Z,10.69
2022-11-16T09:08:45.172Z,10.67
2022-11-16T09:10:47.712Z,10.69
2022-11-16T09:12:50.654Z,10.72
2022-11-16T09:14:53.274Z,10.74
2022-11-16T09:16:55.873Z,10.79
2022-11-16T09:18:58.577Z,10.77
2022-11-16T09:21:01.131Z,10.78
2022-11-16T09:23:05.048Z,10.83
2022-11-16T09:25:09.377Z,10.88
2022-11-16T09:27:12.334Z,10.81
2022-11-16T09:29:16.690Z,10.88
2022-11-16T09:31:23.385Z,10.84
2022-11-16T09:33:26.862Z,10.86
2022-11-16T09:35:29.495Z,10.89
2022-11-16T09:37:32.051Z,10.94
2022-11-16T09:39:36.018Z,11.04
2022-11-16T09:42:08.242Z,11.16
2022-11-16T09:44:17.799Z,11.06
2022-11-16T09:46:26.668Z,11.07
2022-11-16T09:48:29.690Z,11.09
2022-11-16T09:50:45.856Z,11.02
2022-11-16T09:52:52.451Z,11.17
2022-11-16T09:54:59.014Z,11.45
2022-11-16T09:57:12.036Z,11.36
2022-11-16T09:59:22.793Z,11.45
2022-11-16T10:01:30.230Z,11.43
2022-11-16T10:03:41.692Z,11.40
2022-11-16T10:05:49.659Z,11.37
2022-11-16T10:07:59.789Z,11.39
2022-11-16T10:10:03.753Z,11.42
2022-11-16T10:12:19.375Z,11.62
2022-11-16T10:14:41.816Z,11.74
2022-11-16T10:16:50.379Z,11.71
2022-11-16T10:18:58.406Z,11.81
2022-11-16T10:21:33.105Z,11.76
2022-11-16T10:23:49.988Z,11.67
2022-11-16T10:25:58.985Z,11.61
2022-11-16T10:28:36.232Z,11.59
2022-11-16T10:30:47.017Z,11.68
2022-11-16T10:32:56.026Z,11.71
2022-11-16T10:35:05.235Z,11.85
2022-11-16T10:37:08.759Z,11.78
2022-11-16T10:39:14.453Z,11.88
2022-11-16T10:41:23.683Z,11.90
2022-11-16T10:43:29.408Z,11.97
2022-11-16T10:45:40.620Z,12.07
2022-11-16T10:47:50.539Z,12.20
2022-11-16T10:49:57.972Z,12.01
2022-11-16T10:52:00.631Z,12.10
2022-11-16T10:54:04.786Z,12.22
2022-11-16T10:56:22.177Z,12.20
2022-11-16T10:58:24.762Z,12.07
2022-11-16T11:00:36.096Z,12.10
2022-11-16T11:02:39.898Z,12.17
2022-11-16T11:04:42.531Z,12.43
2022-11-16T11:06:45.829Z,12.44
2022-11-16T11:08:48.432Z,12.44
2022-11-16T11:11:01.648Z,12.44
2022-11-16T11:13:20.812Z,12.40
2022-11-16T11:15:27.086Z,12.36
2022-11-16T11:17:31.013Z,12.41
2022-11-16T11:19:33.600Z,12.53
2022-11-16T11:21:36.173Z,12.61
2022-11-16T11:23:44.475Z,12.56
2022-11-16T11:25:54.427Z,12.59
2022-11-16T11:28:08.697Z,12.72
2022-11-16T11:30:20.443Z,12.70
2022-11-16T11:32:26.131Z,12.72
2022-11-16T11:34:30.908Z,12.68
2022-11-16T11:36:38.413Z,12.69
2022-11-16T11:38:57.589Z,12.74
2022-11-16T11:41:01.934Z,12.66
2022-11-16T11:43:06.967Z,12.65
2022-11-16T11:45:16.187Z,12.72
2022-11-16T11:47:56.122Z,12.60
2022-11-16T11:49:57.502Z,12.59
2022-11-16T11:52:05.113Z,12.50
2022-11-16T11:54:08.739Z,12.48
2022-11-16T11:56:12.900Z,12.45
2022-11-16T11:58:21.969Z,12.46
2022-11-16T12:00:26.225Z,12.41
2022-11-16T12:02:45.598Z,12.47
2022-11-16T12:05:18.603Z,12.37
2022-11-16T12:07:45.129Z,12.38
2022-11-16T12:09:58.066Z,12.32
2022-11-16T12:12:15.003Z,12.31
2022-11-16T12:14:33.710Z,12.29
2022-11-16T12:16:42.770Z,12.60
2022-11-16T12:19:05.570Z,12.57
2022-11-16T12:21:14.042Z,12.51
2022-11-16T12:23:37.688Z,12.47
2022-11-16T12:25:49.403Z,12.43
2022-11-16T12:28:04.041Z,12.43
2022-11-16T12:30:14.530Z,12.50
2022-11-16T12:32:39.841Z,12.49
2022-11-16T12:35:01.202Z,12.42
2022-11-16T12:37:11.909Z,12.39
2022-11-16T12:39:24.846Z,12.44
2022-11-16T12:41:44.877Z,12.38
2022-11-16T12:43:56.594Z,12.45
2022-11-16T12:46:12.453Z,12.49
2022-11-16T12:48:45.195Z,12.47
2022-11-16T12:50:58.053Z,12.70
2022-11-16T12:53:19.811Z,12.50
2022-11-16T12:55:30.212Z,12.47
2022-11-16T12:57:45.143Z,12.51
2022-11-16T13:00:05.928Z,12.37
2022-11-16T13:02:24.423Z,12.45
2022-11-16T13:04:31.643Z,12.50
2022-11-16T13:06:39.658Z,12.42
2022-11-16T13:08:49.413Z,12.47
2022-11-16T13:10:59.410Z,12.33
2022-11-16T13:13:35.007Z,12.29
2022-11-16T13:15:34.687Z,12.33
2022-11-16T13:17:40.933Z,12.30
2022-11-16T13:19:47.907Z,12.35
2022-11-16T13:21:59.888Z,12.30
2022-11-16T13:24:23.402Z,12.27
2022-11-16T13:26:32.506Z,12.31
2022-11-16T13:28:41.221Z,12.33
2022-11-16T13:30:52.188Z,12.38
2022-11-16T13:33:13.684Z,12.51
2022-11-16T13:35:18.602Z,12.60
2022-11-16T13:37:44.374Z,12.67
2022-11-16T13:40:27.160Z,12.70
2022-11-16T13:42:31.518Z,12.78
2022-11-16T13:44:34.867Z,12.86
2022-11-16T13:46:55.472Z,12.94
2022-11-16T13:49:00.097Z,13.01
2022-11-16T13:51:04.968Z,13.09
2022-11-16T13:54:17.578Z,12.92
2022-11-16T13:55:41.537Z,12.91
2022-11-16T13:57:51.967Z,12.97
2022-11-16T14:00:10.165Z,13.14
2022-11-16T14:02:31.811Z,13.20
2022-11-16T14:04:54.519Z,13.24
2022-11-16T14:07:00.429Z,13.19
2022-11-16T14:09:03.148Z,13.21
2022-11-16T14:11:26.626Z,13.13
2022-11-16T14:13:41.167Z,13.06
2022-11-16T14:15:43.807Z,13.09
2022-11-16T14:17:54.965Z,13.09
2022-11-16T14:19:58.968Z,13.09
2022-11-16T14:22:09.046Z,13.03
2022-11-16T14:24:22.420Z,12.98
2022-11-16T14:26:38.271Z,12.94
2022-11-16T14:29:08.679Z,12.87
2022-11-16T14:31:21.435Z,12.89
2022-11-16T14:33:33.189Z,12.93
2022-11-16T14:35:40.653Z,13.03
2022-11-16T14:37:43.437Z,13.09
2022-11-16T14:39:46.310Z,13.14
2022-11-16T14:41:49.039Z,13.12
2022-11-16T14:43:54.736Z,13.11
2022-11-16T14:46:02.462Z,13.12
2022-11-16T14:48:07.951Z,13.06
2022-11-16T14:50:19.981Z,13.04
2022-11-16T14:52:31.361Z,12.98
2022-11-16T14:54:42.532Z,12.91
2022-11-16T14:56:59.345Z,12.86
2022-11-16T14:59:03.265Z,12.83
2022-11-16T15:01:08.827Z,12.78
2022-11-16T15:03:13.182Z,12.73
2022-11-16T15:05:17.811Z,12.69
2022-11-16T15:07:23.539Z,12.61
2022-11-16T15:09:30.832Z,12.56
2022-11-16T15:11:54.827Z,12.50
2022-11-16T15:13:57.510Z,12.47
2022-11-16T15:16:11.358Z,12.41
2022-11-16T15:18:17.878Z,12.36
2022-11-16T15:20:24.405Z,12.30
2022-11-16T15:22:29.555Z,12.23
2022-11-16T15:24:34.821Z,12.18
2022-11-16T15:26:39.411Z,12.15
2022-11-16T15:28:47.184Z,12.07
2022-11-16T15:30:55.209Z,11.98
2022-11-16T15:32:58.358Z,11.90
2022-11-16T15:35:05.119Z,11.86
2022-11-16T15:37:12.054Z,11.77
2022-11-16T15:39:19.499Z,11.69
2022-11-16T15:41:25.394Z,11.61
2022-11-16T15:43:32.859Z,11.52
2022-11-16T15:45:38.487Z,11.45
2022-11-16T15:47:41.674Z,11.45
2022-11-16T15:49:49.529Z,11.34
2022-11-16T15:51:52.175Z,11.24
2022-11-16T15:53:56.332Z,11.19
2022-11-16T15:55:58.972Z,11.16
2022-11-16T15:58:12.776Z,11.15
2022-11-16T16:00:23.470Z,11.05
2022-11-16T16:02:28.530Z,11.01
2022-11-16T16:04:31.346Z,10.94
2022-11-16T16:06:45.635Z,10.91
2022-11-16T16:09:05.218Z,10.86
2022-11-16T16:11:11.760Z,10.81
2022-11-16T16:13:27.831Z,10.77
2022-11-16T16:15:33.906Z,10.76
2022-11-16T16:17:36.506Z,10.74
2022-11-16T16:19:42.214Z,10.71
2022-11-16T16:21:46.912Z,10.68
2022-11-16T16:23:51.363Z,10.61
2022-11-16T16:25:54.008Z,10.57
2022-11-16T16:27:56.686Z,10.54
2022-11-16T16:30:06.897Z,10.48
2022-11-16T16:32:14.524Z,10.48
2022-11-16T16:34:17.899Z,10.48
2022-11-16T16:36:20.504Z,10.50
2022-11-16T16:38:23.142Z,10.48
2022-11-16T16:40:26.147Z,10.46
2022-11-16T16:42:28.770Z,10.46
2022-11-16T16:44:31.401Z,10.44
2022-11-16T16:46:35.365Z,10.39
2022-11-16T16:48:44.631Z,10.37
2022-11-16T16:50:47.523Z,10.29
2022-11-16T16:52:50.074Z,10.28
2022-11-16T16:54:52.681Z,10.27
2022-11-16T16:56:55.846Z,10.26
2022-11-16T16:58:58.397Z,10.27
2022-11-16T17:01:04.796Z,10.21
2022-11-16T17:03:11.911Z,10.19
2022-11-16T17:05:14.522Z,10.18
2022-11-16T17:07:17.527Z,10.21
2022-11-16T17:09:20.933Z,10.11
2022-11-16T17:11:23.582Z,10.08
2022-11-16T17:13:26.223Z,9.99
2022-11-16T17:15:28.905Z,9.91
2022-11-16T17:17:32.608Z,9.90
2022-11-16T17:19:36.988Z,9.84
2022-11-16T17:21:39.610Z,9.84
2022-11-16T17:23:42.173Z,9.82
2022-11-16T17:25:44.807Z,9.75
2022-11-16T17:27:48.155Z,9.72
2022-11-16T17:29:50.863Z,9.68
2022-11-16T17:31:53.466Z,9.69
2022-11-16T17:33:57.458Z,9.62
2022-11-16T17:36:03.745Z,9.60
2022-11-16T17:38:06.314Z,9.57
2022-11-16T17:40:10.432Z,9.52
2022-11-16T17:42:15.554Z,9.53
2022-11-16T17:44:21.907Z,9.46
2022-11-16T17:46:26.232Z,9.55
2022-11-16T17:48:28.781Z,9.49
2022-11-16T17:50:31.379Z,9.48
2022-11-16T17:52:35.822Z,9.49
2022-11-16T17:54:38.445Z,9.51
2022-11-16T17:56:41.152Z,9.42
2022-11-16T17:58:45.032Z,9.40
2022-11-16T18:00:49.738Z,9.46
2022-11-16T18:02:52.314Z,9.50
2022-11-16T18:04:54.919Z,9.44
2022-11-16T18:06:59.638Z,9.42
2022-11-16T18:09:03.728Z,9.37
2022-11-16T18:11:07.514Z,9.45
2022-11-16T18:13:10.159Z,9.38
2022-11-16T18:15:27.986Z,9.38
2022-11-16T18:17:32.482Z,9.37
2022-11-16T18:19:35.365Z,9.29
2022-11-16T18:21:40.251Z,9.32
2022-11-16T18:23:43.289Z,9.29
2022-11-16T18:25:47.272Z,9.24
2022-11-16T18:27:52.662Z,9.20
2022-11-16T18:29:55.273Z,9.23
2022-11-16T18:31:57.924Z,9.26
2022-11-16T18:34:02.015Z,9.21
2022-11-16T18:36:05.787Z,9.18
2022-11-16T18:38:12.864Z,9.16
2022-11-16T18:40:15.774Z,9.17
2022-11-16T18:42:19.729Z,9.17
2022-11-16T18:44:22.363Z,9.20
2022-11-16T18:46:26.874Z,9.21
2022-11-16T18:48:29.624Z,9.18
2022-11-16T18:50:32.284Z,9.13
2022-11-16T18:52:34.882Z,9.14
2022-11-16T18:54:37.493Z,9.13
2022-11-16T18:56:40.087Z,9.14
2022-11-16T18:58:50.320Z,9.10
2022-11-16T19:00:54.909Z,9.09
2022-11-16T19:02:57.619Z,9.10
2022-11-16T19:05:00.273Z,9.07
2022-11-16T19:07:02.902Z,9.05
2022-11-16T19:09:09.557Z,9.07
2022-11-16T19:11:14.416Z,9.02
2022-11-16T19:13:17.079Z,8.97
2022-11-16T19:15:21.049Z,9.00
2022-11-16T19:17:24.842Z,9.05
2022-11-16T19:19:29.208Z,8.99
2022-11-16T19:21:35.322Z,9.01
2022-11-16T19:23:38.815Z,9.05
2022-11-16T19:25:41.413Z,9.07
2022-11-16T19:27:44.128Z,9.16
2022-11-16T19:29:46.705Z,9.14
2022-11-16T19:31:50.839Z,9.22
2022-11-16T19:33:57.962Z,9.25
2022-11-16T19:36:00.567Z,9.25
2022-11-16T19:38:03.162Z,9.31
2022-11-16T19:40:06.951Z,9.33
2022-11-16T19:42:09.606Z,9.33
2022-11-16T19:44:12.344Z,9.34
2022-11-16T19:46:17.520Z,9.34
2022-11-16T19:48:21.455Z,9.39
2022-11-16T19:50:25.262Z,9.38
2022-11-16T19:52:27.941Z,9.43
2022-11-16T19:54:30.629Z,9.49
2022-11-16T19:56:33.383Z,9.45
2022-11-16T19:58:37.204Z,9.43
2022-11-16T20:00:40.116Z,9.45
2022-11-16T20:02:42.746Z,9.53
2022-11-16T20:04:46.781Z,9.53
2022-11-16T20:06:49.489Z,9.53
2022-11-16T20:08:53.854Z,9.55
2022-11-16T20:10:56.519Z,9.53
2022-11-16T20:12:59.323Z,9.56
2022-11-16T20:15:02.873Z,9.54
2022-11-16T20:17:05.993Z,9.53
2022-11-16T20:19:10.353Z,9.52
2022-11-16T20:21:19.551Z,9.54
2022-11-16T20:23:22.137Z,9.53
2022-11-16T20:25:24.719Z,9.56
2022-11-16T20:27:27.382Z,9.52
2022-11-16T20:29:30.005Z,9.52
2022-11-16T20:31:34.169Z,9.51
2022-11-16T20:33:37.395Z,9.52
2022-11-16T20:35:40.229Z,9.50
2022-11-16T20:37:46.025Z,9.50
2022-11-16T20:39:52.451Z,9.48
2022-11-16T20:41:55.050Z,9.46
2022-11-16T20:43:59.369Z,9.40
2022-11-16T20:46:02.071Z,9.36
2022-11-16T20:48:05.282Z,9.32
2022-11-16T20:50:08.224Z,9.25
2022-11-16T20:52:13.633Z,9.26
2022-11-16T20:54:17.705Z,9.23
2022-11-16T20:56:20.976Z,9.21
2022-11-16T20:58:23.560Z,9.18
2022-11-16T21:00:27.478Z,9.12
2022-11-16T21:02:30.084Z,9.11
2022-11-16T21:04:32.729Z,9.12
2022-11-16T21:06:35.471Z,9.12
2022-11-16T21:08:39.081Z,9.11
2022-11-16T21:10:43.239Z,9.13
2022-11-16T21:13:03.791Z,9.21
2022-11-16T21:15:07.509Z,9.34
2022-11-16T21:17:10.109Z,9.29
2022-11-16T21:19:13.363Z,9.27
2022-11-16T21:21:15.985Z,9.33
2022-11-16T21:23:18.609Z,9.43
2022-11-16T21:25:21.266Z,9.38
2022-11-16T21:27:25.251Z,9.42
2022-11-16T21:29:28.153Z,9.42
2022-11-16T21:31:33.237Z,9.43
2022-11-16T21:33:36.133Z,9.32
2022-11-16T21:35:39.161Z,9.31
2022-11-16T21:37:41.770Z,9.26
2022-11-16T21:39:44.322Z,9.26
2022-11-16T21:41:46.959Z,9.25
2022-11-16T21:43:51.182Z,9.23
2022-11-16T21:45:54.153Z,9.23
2022-11-16T21:47:57.453Z,9.24
2022-11-16T21:50:30.077Z,9.25
2022-11-16T21:52:22.620Z,9.27
2022-11-16T21:54:45.190Z,9.27
2022-11-16T21:56:47.810Z,9.22
2022-11-16T21:58:52.784Z,9.23
2022-11-16T22:00:56.430Z,9.19
2022-11-16T22:02:59.298Z,9.24
2022-11-16T22:05:19.617Z,9.25
2022-11-16T22:07:36.707Z,9.24
2022-11-16T22:09:39.455Z,9.25
2022-11-16T22:11:42.019Z,9.27
2022-11-16T22:13:45.218Z,9.30
2022-11-16T22:15:49.355Z,9.34
2022-11-16T22:17:52.018Z,9.40
2022-11-16T22:19:55.116Z,9.41
2022-11-16T22:21:59.223Z,9.38
2022-11-16T22:24:02.612Z,9.40
2022-11-16T22:26:07.680Z,9.38
2022-11-16T22:28:25.736Z,9.39
2022-11-16T22:30:28.332Z,9.36
2022-11-16T22:32:32.356Z,9.36
2022-11-16T22:34:34.958Z,9.40
2022-11-16T22:36:37.516Z,9.39
2022-11-16T22:38:40.153Z,9.43
2022-11-16T22:40:48.953Z,9.47
2022-11-16T22:42:51.811Z,9.48
2022-11-16T22:44:54.394Z,9.48
2022-11-16T22:46:57.051Z,9.49
2022-11-16T22:49:01.050Z,9.50
2022-11-16T22:51:05.734Z,9.52
2022-11-16T22:53:08.401Z,9.53
2022-11-16T22:55:11.358Z,9.51
2022-11-16T22:57:13.923Z,9.50
2022-11-16T22:59:16.512Z,9.54
2022-11-16T23:01:19.839Z,9.54
2022-11-16T23:03:22.598Z,9.54
2022-11-16T23:05:26.662Z,9.55
2022-11-16T23:07:29.301Z,9.55
2022-11-16T23:09:32.114Z,9.58
2022-11-16T23:11:52.402Z,9.58
2022-11-16T23:14:15.563Z,9.60
2022-11-16T23:16:18.133Z,9.64
2022-11-16T23:18:20.741Z,9.61
2022-11-16T23:20:40.937Z,9.59
2022-11-16T23:22:58.844Z,9.65
2022-11-16T23:25:18.887Z,9.64
2022-11-16T23:27:30.482Z,9.65
2022-11-16T23:29:33.346Z,9.69
2022-11-16T23:31:36.025Z,9.69
2022-11-16T23:33:47.817Z,9.73
2022-11-16T23:35:50.278Z,9.69
2022-11-16T23:37:56.218Z,9.71
2022-11-16T23:39:58.789Z,9.72
2022-11-16T23:42:19.221Z,9.74
2022-11-16T23:44:21.818Z,9.74
2022-11-16T23:46:24.553Z,9.78
2022-11-16T23:48:27.156Z,9.78
2022-11-16T23:50:29.731Z,9.78
2022-11-16T23:52:32.287Z,9.80
2022-11-16T23:54:36.241Z,9.82
2022-11-16T23:56:38.782Z,9.81
2022-11-16T23:58:41.365Z,9.82
